sensor_id;sensor_type;location;lat;lon;timestamp;temperature;humidity
22742;DHT22;11538;48.884;8.696;2024-03-29T00:00:52;9.00;99.90
22742;DHT22;11538;48.884;8.696;2024-03-29T00:03:18;9.00;99.90
22742;DHT22;11538;48.884;8.696;2024-03-29T00:05:44;9.00;99.90
22742;DHT22;11538;48.884;8.696;2024-03-29T00:08:10;8.90;99.90
22742;DHT22;11538;48.884;8.696;2024-03-29T00:10:36;8.90;99.90
22742;DHT22;11538;48.884;8.696;2024-03-29T00:13:02;9.00;99.90
22742;DHT22;11538;48.884;8.696;2024-03-29T00:15:28;9.00;99.90
22742;DHT22;11538;48.884;8.696;2024-03-29T00:17:54;8.90;99.90
22742;DHT22;11538;48.884;8.696;2024-03-29T00:20:20;9.00;99.90
22742;DHT22;11538;48.884;8.696;2024-03-29T00:22:47;8.90;99.90
22742;DHT22;11538;48.884;8.696;2024-03-29T00:25:12;9.00;99.90
22742;DHT22;11538;48.884;8.696;2024-03-29T00:27:38;9.00;99.90
22742;DHT22;11538;48.884;8.696;2024-03-29T00:30:04;9.00;99.90
22742;DHT22;11538;48.884;8.696;2024-03-29T00:32:31;9.00;99.90
22742;DHT22;11538;48.884;8.696;2024-03-29T00:34:57;8.90;99.90
22742;DHT22;11538;48.884;8.696;2024-03-29T00:37:23;8.90;99.90
22742;DHT22;11538;48.884;8.696;2024-03-29T00:39:50;8.90;99.90
22742;DHT22;11538;48.884;8.696;2024-03-29T00:42:16;8.90;99.90
22742;DHT22;11538;48.884;8.696;2024-03-29T00:44:42;8.90;99.90
22742;DHT22;11538;48.884;8.696;2024-03-29T00:47:08;8.90;99.90
22742;DHT22;11538;48.884;8.696;2024-03-29T00:49:35;8.90;99.90
22742;DHT22;11538;48.884;8.696;2024-03-29T00:52:02;8.90;99.90
22742;DHT22;11538;48.884;8.696;2024-03-29T00:54:29;8.90;99.90
22742;DHT22;11538;48.884;8.696;2024-03-29T00:56:55;8.90;99.90
22742;DHT22;11538;48.884;8.696;2024-03-29T00:59:21;8.90;99.90
22742;DHT22;11538;48.884;8.696;2024-03-29T01:01:48;8.90;99.90
22742;DHT22;11538;48.884;8.696;2024-03-29T01:04:15;8.90;99.90
22742;DHT22;11538;48.884;8.696;2024-03-29T01:06:41;8.90;99.90
22742;DHT22;11538;48.884;8.696;2024-03-29T01:09:07;8.90;99.90
22742;DHT22;11538;48.884;8.696;2024-03-29T01:11:39;8.90;99.90
22742;DHT22;11538;48.884;8.696;2024-03-29T01:14:06;8.90;99.90
22742;DHT22;11538;48.884;8.696;2024-03-29T01:16:32;9.00;99.90
22742;DHT22;11538;48.884;8.696;2024-03-29T01:18:59;8.90;99.90
22742;DHT22;11538;48.884;8.696;2024-03-29T01:21:28;9.00;99.90
22742;DHT22;11538;48.884;8.696;2024-03-29T01:23:54;9.00;99.90
22742;DHT22;11538;48.884;8.696;2024-03-29T01:26:20;9.00;99.90
22742;DHT22;11538;48.884;8.696;2024-03-29T01:28:46;9.00;99.90
22742;DHT22;11538;48.884;8.696;2024-03-29T01:31:12;9.00;99.90
22742;DHT22;11538;48.884;8.696;2024-03-29T01:33:38;9.00;99.90
22742;DHT22;11538;48.884;8.696;2024-03-29T01:36:07;9.00;99.90
22742;DHT22;11538;48.884;8.696;2024-03-29T01:38:33;9.00;99.90
22742;DHT22;11538;48.884;8.696;2024-03-29T01:41:00;9.00;99.90
22742;DHT22;11538;48.884;8.696;2024-03-29T01:43:26;9.00;99.90
22742;DHT22;11538;48.884;8.696;2024-03-29T01:45:55;8.90;99.90
22742;DHT22;11538;48.884;8.696;2024-03-29T01:48:25;8.90;99.90
22742;DHT22;11538;48.884;8.696;2024-03-29T01:50:52;8.90;99.90
22742;DHT22;11538;48.884;8.696;2024-03-29T01:53:20;8.90;99.90
22742;DHT22;11538;48.884;8.696;2024-03-29T01:55:46;8.90;99.90
22742;DHT22;11538;48.884;8.696;2024-03-29T01:58:12;8.90;99.90
22742;DHT22;11538;48.884;8.696;2024-03-29T02:00:44;8.90;99.90
22742;DHT22;11538;48.884;8.696;2024-03-29T02:03:16;8.80;99.90
22742;DHT22;11538;48.884;8.696;2024-03-29T02:05:46;8.80;99.90
22742;DHT22;11538;48.884;8.696;2024-03-29T02:08:14;8.80;99.90
22742;DHT22;11538;48.884;8.696;2024-03-29T02:10:41;8.80;99.90
22742;DHT22;11538;48.884;8.696;2024-03-29T02:13:07;8.80;99.90
22742;DHT22;11538;48.884;8.696;2024-03-29T02:15:33;8.80;99.90
22742;DHT22;11538;48.884;8.696;2024-03-29T02:17:59;8.80;99.90
22742;DHT22;11538;48.884;8.696;2024-03-29T02:20:25;8.80;99.90
22742;DHT22;11538;48.884;8.696;2024-03-29T02:22:55;8.80;99.90
22742;DHT22;11538;48.884;8.696;2024-03-29T02:25:25;8.90;99.90
22742;DHT22;11538;48.884;8.696;2024-03-29T02:27:51;8.90;99.90
22742;DHT22;11538;48.884;8.696;2024-03-29T02:30:17;8.80;99.90
22742;DHT22;11538;48.884;8.696;2024-03-29T02:32:43;8.80;99.90
22742;DHT22;11538;48.884;8.696;2024-03-29T02:35:09;8.80;99.90
22742;DHT22;11538;48.884;8.696;2024-03-29T02:37:35;8.80;99.90
22742;DHT22;11538;48.884;8.696;2024-03-29T02:40:05;8.80;99.90
22742;DHT22;11538;48.884;8.696;2024-03-29T02:42:32;8.80;99.90
22742;DHT22;11538;48.884;8.696;2024-03-29T02:44:58;8.80;99.90
22742;DHT22;11538;48.884;8.696;2024-03-29T02:47:24;8.80;99.90
22742;DHT22;11538;48.884;8.696;2024-03-29T02:49:50;8.80;99.90
22742;DHT22;11538;48.884;8.696;2024-03-29T02:52:16;8.80;99.90
22742;DHT22;11538;48.884;8.696;2024-03-29T02:54:42;8.80;99.90
22742;DHT22;11538;48.884;8.696;2024-03-29T02:57:07;8.80;99.90
22742;DHT22;11538;48.884;8.696;2024-03-29T02:59:33;8.80;99.90
22742;DHT22;11538;48.884;8.696;2024-03-29T03:01:59;8.80;99.90
22742;DHT22;11538;48.884;8.696;2024-03-29T03:04:25;8.80;99.90
22742;DHT22;11538;48.884;8.696;2024-03-29T03:06:51;8.80;99.90
22742;DHT22;11538;48.884;8.696;2024-03-29T03:09:17;8.80;99.90
22742;DHT22;11538;48.884;8.696;2024-03-29T03:12:02;8.80;99.90
22742;DHT22;11538;48.884;8.696;2024-03-29T03:14:28;8.80;99.90
22742;DHT22;11538;48.884;8.696;2024-03-29T03:16:54;8.90;99.90
22742;DHT22;11538;48.884;8.696;2024-03-29T03:19:20;8.90;99.90
22742;DHT22;11538;48.884;8.696;2024-03-29T03:21:45;8.90;99.90
22742;DHT22;11538;48.884;8.696;2024-03-29T03:24:11;9.00;99.90
22742;DHT22;11538;48.884;8.696;2024-03-29T03:26:37;9.00;99.90
22742;DHT22;11538;48.884;8.696;2024-03-29T03:29:04;9.10;99.90
22742;DHT22;11538;48.884;8.696;2024-03-29T03:31:30;9.10;99.90
22742;DHT22;11538;48.884;8.696;2024-03-29T03:33:56;9.20;99.90
22742;DHT22;11538;48.884;8.696;2024-03-29T03:36:22;9.30;99.90
22742;DHT22;11538;48.884;8.696;2024-03-29T03:38:48;9.30;99.90
22742;DHT22;11538;48.884;8.696;2024-03-29T03:41:14;9.40;99.90
22742;DHT22;11538;48.884;8.696;2024-03-29T03:43:40;9.40;99.90
22742;DHT22;11538;48.884;8.696;2024-03-29T03:46:06;9.50;99.90
22742;DHT22;11538;48.884;8.696;2024-03-29T03:48:32;9.50;99.90
22742;DHT22;11538;48.884;8.696;2024-03-29T03:50:58;9.60;99.90
22742;DHT22;11538;48.884;8.696;2024-03-29T03:53:24;9.60;99.90
22742;DHT22;11538;48.884;8.696;2024-03-29T03:55:49;9.60;99.90
22742;DHT22;11538;48.884;8.696;2024-03-29T03:58:15;9.70;99.90
22742;DHT22;11538;48.884;8.696;2024-03-29T04:00:41;9.70;99.90
22742;DHT22;11538;48.884;8.696;2024-03-29T04:03:07;9.70;99.90
22742;DHT22;11538;48.884;8.696;2024-03-29T04:05:36;9.70;99.90
22742;DHT22;11538;48.884;8.696;2024-03-29T04:08:02;9.70;99.90
22742;DHT22;11538;48.884;8.696;2024-03-29T04:10:29;9.70;99.90
22742;DHT22;11538;48.884;8.696;2024-03-29T04:12:55;9.70;99.90
22742;DHT22;11538;48.884;8.696;2024-03-29T04:15:21;9.70;99.90
22742;DHT22;11538;48.884;8.696;2024-03-29T04:17:47;9.70;99.90
22742;DHT22;11538;48.884;8.696;2024-03-29T04:20:13;9.60;99.90
22742;DHT22;11538;48.884;8.696;2024-03-29T04:22:38;9.70;99.90
22742;DHT22;11538;48.884;8.696;2024-03-29T04:25:04;9.60;99.90
22742;DHT22;11538;48.884;8.696;2024-03-29T04:27:30;9.60;99.90
22742;DHT22;11538;48.884;8.696;2024-03-29T04:29:56;9.50;99.90
22742;DHT22;11538;48.884;8.696;2024-03-29T04:32:22;9.50;99.90
22742;DHT22;11538;48.884;8.696;2024-03-29T04:34:48;9.50;99.90
22742;DHT22;11538;48.884;8.696;2024-03-29T04:37:15;9.40;99.90
22742;DHT22;11538;48.884;8.696;2024-03-29T04:39:42;9.40;99.90
22742;DHT22;11538;48.884;8.696;2024-03-29T04:42:08;9.30;99.90
22742;DHT22;11538;48.884;8.696;2024-03-29T04:44:34;9.30;99.90
22742;DHT22;11538;48.884;8.696;2024-03-29T04:47:00;9.30;99.90
22742;DHT22;11538;48.884;8.696;2024-03-29T04:49:27;9.30;99.90
22742;DHT22;11538;48.884;8.696;2024-03-29T04:52:00;9.30;99.90
22742;DHT22;11538;48.884;8.696;2024-03-29T04:54:27;9.30;99.90
22742;DHT22;11538;48.884;8.696;2024-03-29T04:56:53;9.30;99.90
22742;DHT22;11538;48.884;8.696;2024-03-29T04:59:19;9.30;99.90
22742;DHT22;11538;48.884;8.696;2024-03-29T05:01:46;9.30;99.90
22742;DHT22;11538;48.884;8.696;2024-03-29T05:04:16;9.30;99.90
22742;DHT22;11538;48.884;8.696;2024-03-29T05:06:44;9.30;99.90
22742;DHT22;11538;48.884;8.696;2024-03-29T05:09:13;9.30;99.90
22742;DHT22;11538;48.884;8.696;2024-03-29T05:11:39;9.30;99.90
22742;DHT22;11538;48.884;8.696;2024-03-29T05:14:05;9.30;99.90
22742;DHT22;11538;48.884;8.696;2024-03-29T05:16:31;9.30;99.90
22742;DHT22;11538;48.884;8.696;2024-03-29T05:18:57;9.30;99.90
22742;DHT22;11538;48.884;8.696;2024-03-29T05:21:23;9.30;99.90
22742;DHT22;11538;48.884;8.696;2024-03-29T05:23:49;9.30;99.90
22742;DHT22;11538;48.884;8.696;2024-03-29T05:26:15;9.30;99.90
22742;DHT22;11538;48.884;8.696;2024-03-29T05:28:41;9.40;99.90
22742;DHT22;11538;48.884;8.696;2024-03-29T05:31:13;9.40;99.90
22742;DHT22;11538;48.884;8.696;2024-03-29T05:33:40;9.40;99.90
22742;DHT22;11538;48.884;8.696;2024-03-29T05:36:07;9.50;99.90
22742;DHT22;11538;48.884;8.696;2024-03-29T05:38:36;9.50;99.90
22742;DHT22;11538;48.884;8.696;2024-03-29T05:41:03;9.60;99.90
22742;DHT22;11538;48.884;8.696;2024-03-29T05:43:29;9.70;99.90
22742;DHT22;11538;48.884;8.696;2024-03-29T05:45:56;9.70;99.90
22742;DHT22;11538;48.884;8.696;2024-03-29T05:48:23;9.80;99.90
22742;DHT22;11538;48.884;8.696;2024-03-29T05:50:49;9.80;99.90
22742;DHT22;11538;48.884;8.696;2024-03-29T05:53:15;9.90;99.90
22742;DHT22;11538;48.884;8.696;2024-03-29T05:55:41;9.90;99.90
22742;DHT22;11538;48.884;8.696;2024-03-29T05:58:07;9.90;99.90
22742;DHT22;11538;48.884;8.696;2024-03-29T06:00:33;10.00;99.90
22742;DHT22;11538;48.884;8.696;2024-03-29T06:03:00;10.00;99.90
22742;DHT22;11538;48.884;8.696;2024-03-29T06:05:29;10.10;99.90
22742;DHT22;11538;48.884;8.696;2024-03-29T06:07:55;10.10;99.90
22742;DHT22;11538;48.884;8.696;2024-03-29T06:10:21;10.10;99.90
22742;DHT22;11538;48.884;8.696;2024-03-29T06:12:47;10.10;99.90
22742;DHT22;11538;48.884;8.696;2024-03-29T06:15:13;10.20;99.90
22742;DHT22;11538;48.884;8.696;2024-03-29T06:17:57;10.20;99.90
22742;DHT22;11538;48.884;8.696;2024-03-29T06:20:24;10.30;99.90
22742;DHT22;11538;48.884;8.696;2024-03-29T06:22:50;10.30;99.90
22742;DHT22;11538;48.884;8.696;2024-03-29T06:25:16;10.40;99.90
22742;DHT22;11538;48.884;8.696;2024-03-29T06:27:42;10.50;99.90
22742;DHT22;11538;48.884;8.696;2024-03-29T06:30:15;10.50;99.90
22742;DHT22;11538;48.884;8.696;2024-03-29T06:32:42;10.50;99.90
22742;DHT22;11538;48.884;8.696;2024-03-29T06:35:08;10.60;99.90
22742;DHT22;11538;48.884;8.696;2024-03-29T06:37:34;10.70;99.90
22742;DHT22;11538;48.884;8.696;2024-03-29T06:40:00;10.70;99.90
22742;DHT22;11538;48.884;8.696;2024-03-29T06:42:27;10.80;99.90
22742;DHT22;11538;48.884;8.696;2024-03-29T06:44:53;10.80;99.90
22742;DHT22;11538;48.884;8.696;2024-03-29T06:47:20;10.90;99.90
22742;DHT22;11538;48.884;8.696;2024-03-29T06:49:46;11.00;99.90
22742;DHT22;11538;48.884;8.696;2024-03-29T06:52:12;11.00;99.90
22742;DHT22;11538;48.884;8.696;2024-03-29T06:54:38;11.10;99.90
22742;DHT22;11538;48.884;8.696;2024-03-29T06:57:04;11.10;99.90
22742;DHT22;11538;48.884;8.696;2024-03-29T06:59:30;11.20;99.90
22742;DHT22;11538;48.884;8.696;2024-03-29T07:01:56;11.20;99.90
22742;DHT22;11538;48.884;8.696;2024-03-29T07:04:24;11.20;99.90
22742;DHT22;11538;48.884;8.696;2024-03-29T07:06:51;11.30;99.90
22742;DHT22;11538;48.884;8.696;2024-03-29T07:09:18;11.20;99.90
22742;DHT22;11538;48.884;8.696;2024-03-29T07:11:47;11.20;99.90
22742;DHT22;11538;48.884;8.696;2024-03-29T07:14:18;11.20;99.90
22742;DHT22;11538;48.884;8.696;2024-03-29T07:16:44;11.20;99.90
22742;DHT22;11538;48.884;8.696;2024-03-29T07:19:12;11.20;99.90
22742;DHT22;11538;48.884;8.696;2024-03-29T07:21:45;11.20;99.90
22742;DHT22;11538;48.884;8.696;2024-03-29T07:24:12;11.20;99.90
22742;DHT22;11538;48.884;8.696;2024-03-29T07:26:38;11.20;99.90
22742;DHT22;11538;48.884;8.696;2024-03-29T07:29:05;11.20;99.90
22742;DHT22;11538;48.884;8.696;2024-03-29T07:31:35;11.20;99.90
22742;DHT22;11538;48.884;8.696;2024-03-29T07:34:00;11.20;99.90
22742;DHT22;11538;48.884;8.696;2024-03-29T07:36:27;11.20;99.90
22742;DHT22;11538;48.884;8.696;2024-03-29T07:38:57;11.10;99.90
22742;DHT22;11538;48.884;8.696;2024-03-29T07:41:25;11.10;99.90
22742;DHT22;11538;48.884;8.696;2024-03-29T07:43:55;11.00;99.90
22742;DHT22;11538;48.884;8.696;2024-03-29T07:46:28;10.90;99.90
22742;DHT22;11538;48.884;8.696;2024-03-29T07:48:56;10.90;99.90
22742;DHT22;11538;48.884;8.696;2024-03-29T07:51:22;10.70;99.90
22742;DHT22;11538;48.884;8.696;2024-03-29T07:53:47;10.60;99.90
22742;DHT22;11538;48.884;8.696;2024-03-29T07:56:13;10.50;99.90
22742;DHT22;11538;48.884;8.696;2024-03-29T07:58:40;10.30;99.90
22742;DHT22;11538;48.884;8.696;2024-03-29T08:01:05;10.30;99.90
22742;DHT22;11538;48.884;8.696;2024-03-29T08:03:32;10.20;99.90
22742;DHT22;11538;48.884;8.696;2024-03-29T08:06:02;10.10;99.90
22742;DHT22;11538;48.884;8.696;2024-03-29T08:08:32;10.10;99.90
22742;DHT22;11538;48.884;8.696;2024-03-29T08:10:58;10.00;99.90
22742;DHT22;11538;48.884;8.696;2024-03-29T08:13:26;9.90;99.90
22742;DHT22;11538;48.884;8.696;2024-03-29T08:15:59;9.80;99.90
22742;DHT22;11538;48.884;8.696;2024-03-29T08:18:26;9.80;99.90
22742;DHT22;11538;48.884;8.696;2024-03-29T08:20:53;9.70;99.90
22742;DHT22;11538;48.884;8.696;2024-03-29T08:23:21;9.70;99.90
22742;DHT22;11538;48.884;8.696;2024-03-29T08:25:47;9.60;99.90
22742;DHT22;11538;48.884;8.696;2024-03-29T08:28:14;9.60;99.90
22742;DHT22;11538;48.884;8.696;2024-03-29T08:30:40;9.50;99.90
22742;DHT22;11538;48.884;8.696;2024-03-29T08:33:06;9.50;99.90
22742;DHT22;11538;48.884;8.696;2024-03-29T08:35:32;9.40;99.90
22742;DHT22;11538;48.884;8.696;2024-03-29T08:37:59;9.40;99.90
22742;DHT22;11538;48.884;8.696;2024-03-29T08:40:27;9.40;99.90
22742;DHT22;11538;48.884;8.696;2024-03-29T08:42:55;9.40;99.90
22742;DHT22;11538;48.884;8.696;2024-03-29T08:45:23;9.40;99.90
22742;DHT22;11538;48.884;8.696;2024-03-29T08:47:49;9.50;99.90
22742;DHT22;11538;48.884;8.696;2024-03-29T08:50:15;9.50;99.90
22742;DHT22;11538;48.884;8.696;2024-03-29T08:52:41;9.50;99.90
22742;DHT22;11538;48.884;8.696;2024-03-29T08:55:07;9.60;99.90
22742;DHT22;11538;48.884;8.696;2024-03-29T08:57:34;9.60;99.90
22742;DHT22;11538;48.884;8.696;2024-03-29T09:00:00;9.60;99.90
22742;DHT22;11538;48.884;8.696;2024-03-29T09:02:26;9.70;99.90
22742;DHT22;11538;48.884;8.696;2024-03-29T09:04:53;9.80;99.90
22742;DHT22;11538;48.884;8.696;2024-03-29T09:07:19;9.80;99.90
22742;DHT22;11538;48.884;8.696;2024-03-29T09:09:49;9.80;99.90
22742;DHT22;11538;48.884;8.696;2024-03-29T09:12:15;9.90;99.90
22742;DHT22;11538;48.884;8.696;2024-03-29T09:14:44;10.00;99.90
22742;DHT22;11538;48.884;8.696;2024-03-29T09:17:11;10.20;99.90
22742;DHT22;11538;48.884;8.696;2024-03-29T09:19:37;10.30;99.90
22742;DHT22;11538;48.884;8.696;2024-03-29T09:22:03;10.40;99.90
22742;DHT22;11538;48.884;8.696;2024-03-29T09:24:29;10.50;99.90
22742;DHT22;11538;48.884;8.696;2024-03-29T09:26:54;10.60;99.90
22742;DHT22;11538;48.884;8.696;2024-03-29T09:29:20;10.70;99.90
22742;DHT22;11538;48.884;8.696;2024-03-29T09:31:46;10.80;99.90
22742;DHT22;11538;48.884;8.696;2024-03-29T09:34:12;10.80;99.90
22742;DHT22;11538;48.884;8.696;2024-03-29T09:36:38;10.90;99.90
22742;DHT22;11538;48.884;8.696;2024-03-29T09:39:04;11.00;99.90
22742;DHT22;11538;48.884;8.696;2024-03-29T09:41:30;11.00;99.90
22742;DHT22;11538;48.884;8.696;2024-03-29T09:44:00;11.10;99.90
22742;DHT22;11538;48.884;8.696;2024-03-29T09:46:28;11.10;99.90
22742;DHT22;11538;48.884;8.696;2024-03-29T09:48:55;11.20;99.90
22742;DHT22;11538;48.884;8.696;2024-03-29T09:51:21;11.30;99.90
22742;DHT22;11538;48.884;8.696;2024-03-29T09:53:51;11.30;99.90
22742;DHT22;11538;48.884;8.696;2024-03-29T09:56:17;11.40;99.90
22742;DHT22;11538;48.884;8.696;2024-03-29T09:58:43;11.50;99.90
22742;DHT22;11538;48.884;8.696;2024-03-29T10:01:09;11.50;99.90
22742;DHT22;11538;48.884;8.696;2024-03-29T10:03:37;11.60;99.90
22742;DHT22;11538;48.884;8.696;2024-03-29T10:06:05;11.60;99.90
22742;DHT22;11538;48.884;8.696;2024-03-29T10:08:34;11.70;99.90
22742;DHT22;11538;48.884;8.696;2024-03-29T10:11:02;11.70;99.90
22742;DHT22;11538;48.884;8.696;2024-03-29T10:13:28;11.70;99.90
22742;DHT22;11538;48.884;8.696;2024-03-29T10:15:56;11.70;99.90
22742;DHT22;11538;48.884;8.696;2024-03-29T10:18:23;11.70;99.90
22742;DHT22;11538;48.884;8.696;2024-03-29T10:23:25;11.80;99.90
22742;DHT22;11538;48.884;8.696;2024-03-29T10:25:51;11.80;99.90
22742;DHT22;11538;48.884;8.696;2024-03-29T10:28:18;11.80;99.90
22742;DHT22;11538;48.884;8.696;2024-03-29T10:30:44;11.80;99.90
22742;DHT22;11538;48.884;8.696;2024-03-29T10:33:11;11.80;99.90
22742;DHT22;11538;48.884;8.696;2024-03-29T10:35:43;11.80;99.90
22742;DHT22;11538;48.884;8.696;2024-03-29T10:38:10;11.80;99.90
22742;DHT22;11538;48.884;8.696;2024-03-29T10:40:37;11.90;99.90
22742;DHT22;11538;48.884;8.696;2024-03-29T10:43:09;12.00;99.90
22742;DHT22;11538;48.884;8.696;2024-03-29T10:45:39;12.20;99.90
22742;DHT22;11538;48.884;8.696;2024-03-29T10:48:05;12.40;99.90
22742;DHT22;11538;48.884;8.696;2024-03-29T10:50:35;12.50;99.90
22742;DHT22;11538;48.884;8.696;2024-03-29T10:53:02;12.70;99.90
22742;DHT22;11538;48.884;8.696;2024-03-29T10:55:29;12.80;99.90
22742;DHT22;11538;48.884;8.696;2024-03-29T10:57:57;12.90;99.90
22742;DHT22;11538;48.884;8.696;2024-03-29T11:00:24;13.10;99.90
22742;DHT22;11538;48.884;8.696;2024-03-29T11:02:52;13.20;99.90
22742;DHT22;11538;48.884;8.696;2024-03-29T11:05:23;13.40;99.90
22742;DHT22;11538;48.884;8.696;2024-03-29T11:07:51;13.50;99.90
22742;DHT22;11538;48.884;8.696;2024-03-29T11:15:31;14.20;99.90
22742;DHT22;11538;48.884;8.696;2024-03-29T11:18:00;14.40;99.90
22742;DHT22;11538;48.884;8.696;2024-03-29T11:20:26;14.60;99.90
22742;DHT22;11538;48.884;8.696;2024-03-29T11:23:12;14.80;99.90
22742;DHT22;11538;48.884;8.696;2024-03-29T11:25:40;14.80;99.90
22742;DHT22;11538;48.884;8.696;2024-03-29T11:28:08;14.80;99.90
22742;DHT22;11538;48.884;8.696;2024-03-29T11:30:42;14.90;99.90
22742;DHT22;11538;48.884;8.696;2024-03-29T11:33:24;14.90;99.90
22742;DHT22;11538;48.884;8.696;2024-03-29T11:35:51;14.90;99.90
22742;DHT22;11538;48.884;8.696;2024-03-29T11:38:17;14.80;99.90
22742;DHT22;11538;48.884;8.696;2024-03-29T11:40:54;14.80;99.90
22742;DHT22;11538;48.884;8.696;2024-03-29T11:43:20;14.70;99.90
22742;DHT22;11538;48.884;8.696;2024-03-29T11:45:46;14.70;99.90
22742;DHT22;11538;48.884;8.696;2024-03-29T11:48:17;14.60;99.90
22742;DHT22;11538;48.884;8.696;2024-03-29T11:50:48;14.60;99.90
22742;DHT22;11538;48.884;8.696;2024-03-29T11:53:14;14.50;99.90
22742;DHT22;11538;48.884;8.696;2024-03-29T11:55:40;14.50;99.90
22742;DHT22;11538;48.884;8.696;2024-03-29T11:58:08;14.50;99.90
22742;DHT22;11538;48.884;8.696;2024-03-29T12:00:34;14.50;99.90
22742;DHT22;11538;48.884;8.696;2024-03-29T12:03:01;14.50;99.90
22742;DHT22;11538;48.884;8.696;2024-03-29T12:05:33;14.60;99.90
22742;DHT22;11538;48.884;8.696;2024-03-29T12:08:00;14.60;99.90
22742;DHT22;11538;48.884;8.696;2024-03-29T12:10:27;14.50;99.90
22742;DHT22;11538;48.884;8.696;2024-03-29T12:12:57;14.50;99.90
22742;DHT22;11538;48.884;8.696;2024-03-29T12:15:23;14.50;99.90
22742;DHT22;11538;48.884;8.696;2024-03-29T12:17:54;14.50;99.90
22742;DHT22;11538;48.884;8.696;2024-03-29T12:20:21;14.50;99.90
22742;DHT22;11538;48.884;8.696;2024-03-29T12:22:47;14.40;99.90
22742;DHT22;11538;48.884;8.696;2024-03-29T12:25:12;14.40;99.90
22742;DHT22;11538;48.884;8.696;2024-03-29T12:27:42;14.40;99.90
22742;DHT22;11538;48.884;8.696;2024-03-29T12:30:08;14.40;99.90
22742;DHT22;11538;48.884;8.696;2024-03-29T12:32:35;14.30;99.90
22742;DHT22;11538;48.884;8.696;2024-03-29T12:35:07;14.30;99.90
22742;DHT22;11538;48.884;8.696;2024-03-29T12:37:35;14.20;99.90
22742;DHT22;11538;48.884;8.696;2024-03-29T12:40:01;14.10;99.90
22742;DHT22;11538;48.884;8.696;2024-03-29T12:42:30;14.10;99.90
22742;DHT22;11538;48.884;8.696;2024-03-29T12:44:56;14.00;99.90
22742;DHT22;11538;48.884;8.696;2024-03-29T12:47:29;13.90;99.90
22742;DHT22;11538;48.884;8.696;2024-03-29T12:49:58;13.90;99.90
22742;DHT22;11538;48.884;8.696;2024-03-29T12:52:24;13.80;99.90
22742;DHT22;11538;48.884;8.696;2024-03-29T12:54:50;13.80;99.90
22742;DHT22;11538;48.884;8.696;2024-03-29T12:57:16;13.80;99.90
22742;DHT22;11538;48.884;8.696;2024-03-29T12:59:42;13.70;99.90
22742;DHT22;11538;48.884;8.696;2024-03-29T13:02:10;13.70;99.90
22742;DHT22;11538;48.884;8.696;2024-03-29T13:04:36;13.70;99.90
22742;DHT22;11538;48.884;8.696;2024-03-29T13:07:04;13.70;99.90
22742;DHT22;11538;48.884;8.696;2024-03-29T13:09:30;13.70;99.90
22742;DHT22;11538;48.884;8.696;2024-03-29T13:11:55;13.70;99.90
22742;DHT22;11538;48.884;8.696;2024-03-29T13:14:22;13.60;99.90
22742;DHT22;11538;48.884;8.696;2024-03-29T13:16:48;13.60;99.90
22742;DHT22;11538;48.884;8.696;2024-03-29T13:19:14;13.60;99.90
22742;DHT22;11538;48.884;8.696;2024-03-29T13:21:40;13.50;99.90
22742;DHT22;11538;48.884;8.696;2024-03-29T13:24:06;13.50;99.90
22742;DHT22;11538;48.884;8.696;2024-03-29T13:26:32;13.50;99.90
22742;DHT22;11538;48.884;8.696;2024-03-29T13:28:58;13.70;99.90
22742;DHT22;11538;48.884;8.696;2024-03-29T13:31:24;13.80;99.90
22742;DHT22;11538;48.884;8.696;2024-03-29T13:33:54;13.90;99.90
22742;DHT22;11538;48.884;8.696;2024-03-29T13:36:29;14.10;99.90
22742;DHT22;11538;48.884;8.696;2024-03-29T13:38:56;14.20;99.90
22742;DHT22;11538;48.884;8.696;2024-03-29T13:41:22;14.40;99.90
22742;DHT22;11538;48.884;8.696;2024-03-29T13:43:48;14.50;99.90
22742;DHT22;11538;48.884;8.696;2024-03-29T13:46:14;14.50;99.90
22742;DHT22;11538;48.884;8.696;2024-03-29T13:48:40;14.60;99.90
22742;DHT22;11538;48.884;8.696;2024-03-29T13:51:07;14.60;99.90
22742;DHT22;11538;48.884;8.696;2024-03-29T13:53:33;14.60;99.90
22742;DHT22;11538;48.884;8.696;2024-03-29T13:56:03;14.70;99.90
22742;DHT22;11538;48.884;8.696;2024-03-29T13:58:30;14.80;99.90
22742;DHT22;11538;48.884;8.696;2024-03-29T14:00:56;14.80;99.90
22742;DHT22;11538;48.884;8.696;2024-03-29T14:03:25;14.80;99.90
22742;DHT22;11538;48.884;8.696;2024-03-29T14:05:51;14.80;99.90
22742;DHT22;11538;48.884;8.696;2024-03-29T14:08:17;14.80;99.90
22742;DHT22;11538;48.884;8.696;2024-03-29T14:10:43;14.90;99.90
22742;DHT22;11538;48.884;8.696;2024-03-29T14:13:09;15.10;99.90
22742;DHT22;11538;48.884;8.696;2024-03-29T14:15:35;15.40;99.90
22742;DHT22;11538;48.884;8.696;2024-03-29T14:18:01;15.60;99.90
22742;DHT22;11538;48.884;8.696;2024-03-29T14:20:27;15.80;99.90
22742;DHT22;11538;48.884;8.696;2024-03-29T14:22:53;15.80;99.90
22742;DHT22;11538;48.884;8.696;2024-03-29T14:25:23;15.80;99.90
22742;DHT22;11538;48.884;8.696;2024-03-29T14:27:49;15.80;99.90
22742;DHT22;11538;48.884;8.696;2024-03-29T14:30:20;15.70;99.90
22742;DHT22;11538;48.884;8.696;2024-03-29T14:32:46;15.70;99.90
22742;DHT22;11538;48.884;8.696;2024-03-29T14:35:15;15.70;99.90
22742;DHT22;11538;48.884;8.696;2024-03-29T14:37:43;15.70;99.90
22742;DHT22;11538;48.884;8.696;2024-03-29T14:40:09;15.80;99.90
22742;DHT22;11538;48.884;8.696;2024-03-29T14:42:41;15.80;99.90
22742;DHT22;11538;48.884;8.696;2024-03-29T14:45:08;15.90;99.90
22742;DHT22;11538;48.884;8.696;2024-03-29T14:47:39;16.00;99.90
22742;DHT22;11538;48.884;8.696;2024-03-29T14:50:05;16.00;99.90
22742;DHT22;11538;48.884;8.696;2024-03-29T14:52:34;16.10;99.90
22742;DHT22;11538;48.884;8.696;2024-03-29T14:55:00;16.10;99.90
22742;DHT22;11538;48.884;8.696;2024-03-29T14:57:26;16.20;99.90
22742;DHT22;11538;48.884;8.696;2024-03-29T14:59:53;16.30;99.90
22742;DHT22;11538;48.884;8.696;2024-03-29T15:02:18;16.30;99.90
22742;DHT22;11538;48.884;8.696;2024-03-29T15:04:44;16.30;99.90
22742;DHT22;11538;48.884;8.696;2024-03-29T15:07:10;16.40;99.90
22742;DHT22;11538;48.884;8.696;2024-03-29T15:09:36;16.40;99.90
22742;DHT22;11538;48.884;8.696;2024-03-29T15:12:03;16.30;99.90
22742;DHT22;11538;48.884;8.696;2024-03-29T15:14:29;16.30;99.90
22742;DHT22;11538;48.884;8.696;2024-03-29T15:16:55;16.30;99.90
22742;DHT22;11538;48.884;8.696;2024-03-29T15:19:22;16.20;99.90
22742;DHT22;11538;48.884;8.696;2024-03-29T15:21:48;16.20;99.90
22742;DHT22;11538;48.884;8.696;2024-03-29T15:24:14;16.20;99.90
22742;DHT22;11538;48.884;8.696;2024-03-29T15:26:41;16.10;99.90
22742;DHT22;11538;48.884;8.696;2024-03-29T15:29:07;16.10;99.90
22742;DHT22;11538;48.884;8.696;2024-03-29T15:31:37;16.10;99.90
22742;DHT22;11538;48.884;8.696;2024-03-29T15:34:04;16.00;99.90
22742;DHT22;11538;48.884;8.696;2024-03-29T15:36:31;15.90;99.90
22742;DHT22;11538;48.884;8.696;2024-03-29T15:38:58;15.90;99.90
22742;DHT22;11538;48.884;8.696;2024-03-29T15:41:37;15.90;99.90
22742;DHT22;11538;48.884;8.696;2024-03-29T15:44:05;15.80;99.90